createdAt,value
2023-01-17T00:00:09.645Z,56.90
2023-01-17T00:02:40.774Z,57.70
2023-01-17T00:05:29.516Z,58.20
2023-01-17T00:11:00.492Z,58.40
2023-01-17T00:13:30.694Z,56.90
2023-01-17T00:16:01.048Z,57.60
2023-01-17T00:18:31.540Z,58.50
2023-01-17T00:21:19.753Z,57.50
2023-01-17T00:24:08.076Z,57.60
2023-01-17T00:26:38.332Z,55.40
2023-01-17T00:29:08.286Z,57.60
2023-01-17T00:31:38.251Z,54.90
2023-01-17T00:34:08.246Z,53.50
2023-01-17T00:36:38.743Z,55.40
2023-01-17T00:39:08.680Z,53.80
2023-01-17T00:41:39.043Z,55.40
2023-01-17T00:44:29.409Z,55.70
2023-01-17T00:47:17.824Z,55.00
2023-01-17T00:50:05.863Z,55.70
2023-01-17T00:52:54.470Z,53.40
2023-01-17T00:55:42.680Z,53.00
2023-01-17T00:58:30.816Z,54.40
2023-01-17T01:01:18.896Z,54.50
2023-01-17T01:04:07.446Z,52.40
2023-01-17T01:06:55.968Z,53.00
2023-01-17T01:09:44.144Z,53.10
2023-01-17T01:12:32.228Z,54.50
2023-01-17T01:15:20.556Z,52.70
2023-01-17T01:18:09.088Z,50.40
2023-01-17T01:20:57.193Z,51.90
2023-01-17T01:23:45.271Z,52.50
2023-01-17T01:26:33.567Z,52.10
2023-01-17T01:29:21.743Z,51.40
2023-01-17T01:32:09.857Z,49.60
2023-01-17T01:34:40.151Z,49.90
2023-01-17T01:37:10.383Z,49.90
2023-01-17T01:39:40.607Z,51.00
2023-01-17T01:42:17.400Z,50.90
2023-01-17T01:44:53.419Z,49.30
2023-01-17T01:47:42.662Z,49.40
2023-01-17T01:50:15.633Z,49.80
2023-01-17T01:52:51.040Z,50.00
2023-01-17T01:55:35.642Z,47.90
2023-01-17T01:58:13.230Z,49.30
2023-01-17T02:00:44.595Z,47.70
2023-01-17T02:03:24.291Z,49.90
2023-01-17T02:05:55.268Z,44.50
2023-01-17T02:08:32.242Z,42.40
2023-01-17T02:11:04.231Z,44.60
2023-01-17T02:13:35.165Z,46.00
2023-01-17T02:16:28.839Z,45.40
2023-01-17T02:19:29.005Z,45.10
2023-01-17T02:22:18.216Z,46.40
2023-01-17T02:25:18.904Z,45.50
2023-01-17T02:28:17.081Z,45.20
2023-01-17T02:31:05.586Z,44.30
2023-01-17T02:34:05.825Z,43.90
2023-01-17T02:36:49.502Z,45.60
2023-01-17T02:39:32.373Z,44.60
2023-01-17T02:42:10.883Z,43.40
2023-01-17T02:44:46.409Z,43.40
2023-01-17T02:47:27.518Z,46.90
2023-01-17T02:50:21.048Z,44.30
2023-01-17T02:53:10.941Z,44.50
2023-01-17T02:55:56.678Z,43.60
2023-01-17T02:58:51.769Z,43.70
2023-01-17T03:01:57.551Z,42.00
2023-01-17T03:04:55.683Z,41.10
2023-01-17T03:07:29.929Z,43.90
2023-01-17T03:10:04.236Z,41.10
2023-01-17T03:12:39.801Z,39.80
2023-01-17T03:15:19.593Z,39.30
2023-01-17T03:17:57.939Z,39.50
2023-01-17T03:20:29.316Z,40.10
2023-01-17T03:23:00.137Z,42.00
2023-01-17T03:25:30.789Z,41.10
2023-01-17T03:28:01.688Z,40.50
2023-01-17T03:30:32.623Z,41.60
2023-01-17T03:33:03.626Z,42.30
2023-01-17T03:35:34.709Z,42.30
2023-01-17T03:38:05.701Z,39.80
2023-01-17T03:40:36.493Z,41.80
2023-01-17T03:43:07.362Z,43.10
2023-01-17T03:45:38.288Z,44.30
2023-01-17T03:48:09.489Z,43.00
2023-01-17T03:50:40.298Z,44.30
2023-01-17T03:53:11.238Z,44.30
2023-01-17T03:55:43.469Z,45.10
2023-01-17T03:58:14.194Z,44.80
2023-01-17T04:00:45.137Z,45.00
2023-01-17T04:03:17.031Z,44.60
2023-01-17T04:05:47.816Z,45.10
2023-01-17T04:08:21.591Z,44.80
2023-01-17T04:10:52.290Z,44.60
2023-01-17T04:13:23.252Z,43.70
2023-01-17T04:15:54.776Z,44.40
2023-01-17T04:18:27.993Z,45.00
2023-01-17T04:20:58.707Z,43.70
2023-01-17T04:23:29.422Z,44.30
2023-01-17T04:26:00.158Z,44.30
2023-01-17T04:28:30.858Z,45.70
2023-01-17T04:31:03.181Z,44.50
2023-01-17T04:33:34.199Z,44.70
2023-01-17T04:36:05.219Z,44.10
2023-01-17T04:38:37.293Z,44.50
2023-01-17T04:41:08.287Z,45.30
2023-01-17T04:43:39.000Z,43.80
2023-01-17T04:46:13.168Z,44.30
2023-01-17T04:48:44.153Z,44.70
2023-01-17T04:51:15.038Z,44.60
2023-01-17T04:53:47.585Z,43.50
2023-01-17T04:56:18.354Z,43.60
2023-01-17T04:58:49.005Z,45.00
2023-01-17T05:01:20.692Z,44.10
2023-01-17T05:03:51.757Z,45.40
2023-01-17T05:06:23.677Z,45.50
2023-01-17T05:08:56.403Z,44.90
2023-01-17T05:11:27.487Z,45.30
2023-01-17T05:13:59.334Z,45.60
2023-01-17T05:16:31.582Z,45.50
2023-01-17T05:19:03.197Z,44.50
2023-01-17T05:21:34.740Z,45.30
2023-01-17T05:24:05.499Z,45.40
2023-01-17T05:26:37.333Z,44.70
2023-01-17T05:29:08.058Z,44.30
2023-01-17T05:31:43.948Z,43.50
2023-01-17T05:34:15.653Z,44.00
2023-01-17T05:36:46.126Z,44.40
2023-01-17T05:39:16.797Z,43.30
2023-01-17T05:41:47.954Z,43.60
2023-01-17T05:44:22.513Z,43.60
2023-01-17T05:46:53.255Z,43.70
2023-01-17T05:49:24.015Z,43.70
2023-01-17T05:51:55.061Z,44.90
2023-01-17T05:54:25.768Z,45.00
2023-01-17T05:56:57.572Z,44.60
2023-01-17T05:59:36.980Z,44.00
2023-01-17T06:02:08.471Z,45.20
2023-01-17T06:04:40.272Z,45.80
2023-01-17T06:07:12.269Z,44.80
2023-01-17T06:09:44.151Z,45.10
2023-01-17T06:12:15.403Z,44.00
2023-01-17T06:14:46.165Z,43.50
2023-01-17T06:17:16.987Z,44.10
2023-01-17T06:19:48.074Z,44.40
2023-01-17T06:22:19.941Z,44.50
2023-01-17T06:24:50.581Z,44.30
2023-01-17T06:27:21.456Z,46.70
2023-01-17T06:29:52.556Z,44.80
2023-01-17T06:32:24.207Z,45.30
2023-01-17T06:34:56.561Z,44.50
2023-01-17T06:37:27.940Z,45.30
2023-01-17T06:39:59.609Z,46.20
2023-01-17T06:42:30.286Z,47.00
2023-01-17T06:45:02.510Z,46.60
2023-01-17T06:47:33.584Z,45.20
2023-01-17T06:50:05.978Z,46.80
2023-01-17T06:52:37.061Z,44.60
2023-01-17T06:55:08.454Z,47.10
2023-01-17T06:57:39.583Z,46.40
2023-01-17T07:00:11.286Z,47.60
2023-01-17T07:02:43.155Z,47.60
2023-01-17T07:05:13.840Z,47.30
2023-01-17T07:07:44.614Z,46.30
2023-01-17T07:10:17.227Z,45.30
2023-01-17T07:12:48.254Z,46.50
2023-01-17T07:15:19.209Z,47.80
2023-01-17T07:17:49.903Z,46.70
2023-01-17T07:20:21.034Z,45.90
2023-01-17T07:22:52.295Z,46.80
2023-01-17T07:25:24.947Z,46.40
2023-01-17T07:28:01.001Z,46.30
2023-01-17T07:30:33.153Z,46.50
2023-01-17T07:33:04.089Z,48.10
2023-01-17T07:35:35.074Z,47.60
2023-01-17T07:38:08.301Z,47.00
2023-01-17T07:40:42.208Z,46.10
2023-01-17T07:43:18.274Z,46.50
2023-01-17T07:45:53.027Z,46.50
2023-01-17T07:48:26.303Z,46.20
2023-01-17T07:51:01.117Z,45.80
2023-01-17T07:53:37.902Z,47.10
2023-01-17T07:56:10.303Z,47.40
2023-01-17T07:58:42.196Z,47.50
2023-01-17T08:01:15.409Z,49.00
2023-01-17T08:03:46.229Z,47.50
2023-01-17T08:06:24.164Z,47.90
2023-01-17T08:08:58.660Z,47.80
2023-01-17T08:11:31.960Z,48.50
2023-01-17T08:14:03.448Z,48.90
2023-01-17T08:16:34.276Z,48.40
2023-01-17T08:19:05.148Z,49.80
2023-01-17T08:21:35.840Z,50.40
2023-01-17T08:24:07.122Z,51.50
2023-01-17T08:26:38.686Z,51.00
2023-01-17T08:29:09.748Z,51.10
2023-01-17T08:31:40.437Z,51.30
2023-01-17T08:34:12.964Z,52.00
2023-01-17T08:36:48.161Z,51.40
2023-01-17T08:39:19.765Z,53.20
2023-01-17T08:41:51.354Z,51.30
2023-01-17T08:44:22.454Z,52.60
2023-01-17T08:46:53.508Z,52.10
2023-01-17T08:49:24.481Z,53.60
2023-01-17T08:51:55.702Z,51.30
2023-01-17T08:54:26.370Z,51.00
2023-01-17T08:56:57.771Z,52.50
2023-01-17T08:59:28.539Z,54.40
2023-01-17T09:02:00.481Z,51.90
2023-01-17T09:04:31.526Z,50.50
2023-01-17T09:07:02.763Z,50.60
2023-01-17T09:09:34.586Z,52.30
2023-01-17T09:12:05.681Z,51.10
2023-01-17T09:14:37.328Z,51.60
2023-01-17T09:17:09.150Z,51.30
2023-01-17T09:19:43.311Z,50.20
2023-01-17T09:22:18.902Z,52.30
2023-01-17T09:24:49.657Z,52.80
2023-01-17T09:27:20.732Z,52.10
2023-01-17T09:29:51.666Z,53.50
2023-01-17T09:32:23.932Z,51.70
2023-01-17T09:34:54.740Z,54.50
2023-01-17T09:37:25.438Z,53.10
2023-01-17T09:39:56.080Z,52.90
2023-01-17T09:42:36.456Z,54.30
2023-01-17T09:45:08.197Z,55.60
2023-01-17T09:47:48.966Z,54.50
2023-01-17T09:50:32.934Z,54.80
2023-01-17T09:53:19.255Z,54.80
2023-01-17T09:55:56.208Z,55.90
2023-01-17T09:58:38.144Z,55.70
2023-01-17T10:01:28.275Z,56.60
2023-01-17T10:04:09.262Z,56.90
2023-01-17T10:07:01.700Z,56.30
2023-01-17T10:10:12.647Z,56.40
2023-01-17T10:12:56.914Z,58.20
2023-01-17T10:15:52.704Z,57.90
2023-01-17T10:18:45.044Z,57.90
2023-01-17T10:21:53.832Z,58.20
2023-01-17T10:24:48.132Z,58.80
2023-01-17T10:27:45.104Z,59.40
2023-01-17T10:30:40.179Z,59.70
2023-01-17T10:33:20.666Z,60.30
2023-01-17T10:36:05.873Z,60.00
2023-01-17T10:38:43.611Z,60.30
2023-01-17T10:41:47.358Z,61.40
2023-01-17T10:44:34.240Z,61.60
2023-01-17T10:47:13.745Z,62.50
2023-01-17T10:49:51.405Z,62.00
2023-01-17T10:52:41.188Z,62.70
2023-01-17T10:55:24.183Z,62.40
2023-01-17T10:57:56.762Z,62.70
2023-01-17T11:00:47.844Z,62.80
2023-01-17T11:03:22.490Z,63.30
2023-01-17T11:06:22.411Z,62.90
2023-01-17T11:09:01.319Z,62.90
2023-01-17T11:11:37.739Z,63.60
2023-01-17T11:14:21.480Z,62.90
2023-01-17T11:17:07.431Z,63.40
2023-01-17T11:19:40.688Z,63.80
2023-01-17T11:22:17.489Z,63.70
2023-01-17T11:25:06.737Z,63.80
2023-01-17T11:27:43.060Z,63.80
2023-01-17T11:30:22.788Z,64.60
2023-01-17T11:32:56.146Z,65.10
2023-01-17T11:35:28.907Z,65.20
2023-01-17T11:38:23.773Z,65.60
2023-01-17T11:41:15.534Z,65.90
2023-01-17T11:43:57.108Z,66.40
2023-01-17T11:46:31.229Z,67.00
2023-01-17T11:49:04.941Z,68.00
2023-01-17T11:51:41.432Z,68.20
2023-01-17T11:54:23.152Z,68.60
2023-01-17T11:57:01.267Z,69.10
2023-01-17T11:59:46.303Z,69.40
2023-01-17T12:02:40.725Z,69.90
2023-01-17T12:05:49.231Z,70.60
2023-01-17T12:08:32.463Z,71.10
2023-01-17T12:11:19.147Z,72.20
2023-01-17T12:14:05.556Z,72.50
2023-01-17T12:17:11.195Z,72.70
2023-01-17T12:20:00.446Z,73.90
2023-01-17T12:22:37.568Z,74.40
2023-01-17T12:25:23.698Z,74.50
2023-01-17T12:28:13.432Z,75.00
2023-01-17T12:31:12.423Z,75.20
2023-01-17T12:34:00.043Z,75.10
2023-01-17T12:37:14.695Z,75.30
2023-01-17T12:39:54.399Z,76.00
2023-01-17T12:42:30.666Z,76.40
2023-01-17T12:45:25.678Z,76.50
2023-01-17T12:48:03.673Z,76.80
2023-01-17T12:50:51.586Z,77.90
2023-01-17T12:53:41.160Z,77.90
2023-01-17T12:56:29.859Z,78.30
2023-01-17T12:59:19.857Z,78.70
2023-01-17T13:02:01.083Z,78.80
2023-01-17T13:05:03.629Z,78.90
2023-01-17T13:07:34.298Z,79.00
2023-01-17T13:10:34.609Z,78.90
2023-01-17T13:13:26.308Z,79.40
2023-01-17T13:16:19.941Z,79.70
2023-01-17T13:18:53.374Z,79.60
2023-01-17T13:21:35.646Z,80.20
2023-01-17T13:24:29.150Z,80.50
2023-01-17T13:27:00.429Z,80.20
2023-01-17T13:29:36.963Z,80.40
2023-01-17T13:32:52.131Z,80.70
2023-01-17T13:35:44.136Z,80.80
2023-01-17T13:38:32.974Z,80.50
2023-01-17T13:41:08.284Z,80.20
2023-01-17T13:43:42.600Z,80.60
2023-01-17T13:46:13.298Z,81.10
2023-01-17T13:48:44.082Z,81.50
2023-01-17T13:51:14.942Z,81.60
2023-01-17T13:53:45.652Z,81.90
2023-01-17T13:56:22.398Z,82.10
2023-01-17T13:59:04.009Z,82.30
2023-01-17T14:01:40.471Z,82.40
2023-01-17T14:04:11.295Z,82.50
2023-01-17T14:06:55.530Z,83.00
2023-01-17T14:09:33.670Z,83.60
2023-01-17T14:12:14.174Z,83.50
2023-01-17T14:14:48.012Z,83.50
2023-01-17T14:17:25.078Z,84.20
2023-01-17T14:20:14.788Z,84.40
2023-01-17T14:22:54.104Z,84.20
2023-01-17T14:25:33.142Z,84.60
2023-01-17T14:28:06.515Z,84.60
2023-01-17T14:30:39.460Z,84.50
2023-01-17T14:33:24.043Z,84.60
2023-01-17T14:36:28.777Z,84.60
2023-01-17T14:38:59.614Z,84.70
2023-01-17T14:41:32.200Z,84.80
2023-01-17T14:44:03.238Z,84.70
2023-01-17T14:46:35.343Z,84.50
2023-01-17T14:49:26.158Z,84.80
2023-01-17T14:52:04.521Z,84.90
2023-01-17T14:54:35.825Z,85.00
2023-01-17T14:57:32.018Z,84.70
2023-01-17T15:00:22.557Z,84.80
2023-01-17T15:02:55.696Z,84.70
2023-01-17T15:05:29.747Z,85.00
2023-01-17T15:08:02.033Z,84.90
2023-01-17T15:10:35.543Z,85.00
2023-01-17T15:13:12.568Z,85.20
2023-01-17T15:15:44.306Z,85.10
2023-01-17T15:18:17.918Z,85.30
2023-01-17T15:21:00.269Z,85.10
2023-01-17T15:23:41.192Z,85.50
2023-01-17T15:26:19.165Z,85.50
2023-01-17T15:28:52.039Z,85.70
2023-01-17T15:31:51.368Z,85.60
2023-01-17T15:34:35.652Z,85.80
2023-01-17T15:37:25.379Z,85.90
2023-01-17T15:40:25.553Z,86.20
2023-01-17T15:42:59.969Z,86.10
2023-01-17T15:45:33.827Z,86.40
2023-01-17T15:48:37.214Z,86.40
2023-01-17T15:51:07.974Z,86.40
2023-01-17T15:53:44.174Z,86.60
2023-01-17T15:56:33.992Z,86.70
2023-01-17T15:59:47.503Z,86.40
2023-01-17T16:02:33.685Z,86.50
2023-01-17T16:05:25.336Z,86.70
2023-01-17T16:07:59.948Z,86.50
2023-01-17T16:10:38.359Z,86.70
2023-01-17T16:13:11.355Z,86.60
2023-01-17T16:15:45.784Z,86.70
2023-01-17T16:18:27.424Z,87.00
2023-01-17T16:21:07.914Z,87.20
2023-01-17T16:23:38.820Z,87.30
2023-01-17T16:26:12.867Z,87.30
2023-01-17T16:28:43.580Z,87.60
2023-01-17T16:31:14.401Z,87.80
2023-01-17T16:33:45.294Z,87.10
2023-01-17T16:36:18.445Z,87.40
2023-01-17T16:38:51.251Z,87.40
2023-01-17T16:41:24.508Z,87.80
2023-01-17T16:44:08.253Z,87.70
2023-01-17T16:46:40.619Z,87.70
2023-01-17T16:49:13.147Z,87.40
2023-01-17T16:51:48.633Z,87.60
2023-01-17T16:54:19.597Z,87.80
2023-01-17T16:56:50.661Z,88.00
2023-01-17T16:59:22.372Z,88.50
2023-01-17T17:01:54.984Z,88.80
2023-01-17T17:04:26.637Z,88.60
2023-01-17T17:06:57.286Z,88.80
2023-01-17T17:09:28.031Z,88.60
2023-01-17T17:11:59.454Z,89.20
2023-01-17T17:14:31.416Z,89.10
2023-01-17T17:17:05.742Z,89.60
2023-01-17T17:19:36.650Z,89.90
2023-01-17T17:22:08.641Z,89.70
2023-01-17T17:24:39.412Z,89.90
2023-01-17T17:27:09.761Z,90.10
2023-01-17T17:29:40.389Z,90.00
2023-01-17T17:32:13.649Z,89.40
2023-01-17T17:34:44.308Z,89.90
2023-01-17T17:37:19.133Z,90.00
2023-01-17T17:39:49.886Z,90.00
2023-01-17T17:42:22.128Z,89.80
2023-01-17T17:44:53.749Z,89.90
2023-01-17T17:47:27.957Z,89.80
2023-01-17T17:49:59.495Z,90.10
2023-01-17T17:52:30.481Z,90.10
2023-01-17T17:55:01.411Z,90.20
2023-01-17T17:57:32.271Z,90.40
2023-01-17T18:00:03.992Z,90.50
2023-01-17T18:02:34.673Z,90.60
2023-01-17T18:05:05.038Z,90.30
2023-01-17T18:07:36.420Z,90.00
2023-01-17T18:10:07.652Z,90.50
2023-01-17T18:12:38.564Z,90.60
2023-01-17T18:15:09.348Z,90.60
2023-01-17T18:17:39.968Z,90.60
2023-01-17T18:20:11.094Z,90.80
2023-01-17T18:22:41.668Z,91.00
2023-01-17T18:25:15.728Z,91.00
2023-01-17T18:27:48.586Z,90.90
2023-01-17T18:30:20.052Z,90.90
2023-01-17T18:32:51.983Z,91.00
2023-01-17T18:35:22.308Z,90.80
2023-01-17T18:37:52.732Z,90.80
2023-01-17T18:40:23.164Z,90.90
2023-01-17T18:42:53.644Z,91.00
2023-01-17T18:45:24.518Z,90.90
2023-01-17T18:47:56.159Z,90.90
2023-01-17T18:50:27.651Z,91.10
2023-01-17T18:52:59.823Z,90.90
2023-01-17T18:55:30.233Z,91.00
2023-01-17T18:58:00.877Z,91.20
2023-01-17T19:00:31.721Z,91.00
2023-01-17T19:03:03.584Z,90.90
2023-01-17T19:05:37.326Z,91.10
2023-01-17T19:08:08.411Z,91.30
2023-01-17T19:10:38.941Z,91.40
2023-01-17T19:13:09.787Z,91.30
2023-01-17T19:15:40.942Z,91.30
2023-01-17T19:18:12.773Z,91.30
2023-01-17T19:20:44.221Z,91.40
2023-01-17T19:23:15.074Z,91.40
2023-01-17T19:25:45.883Z,91.90
2023-01-17T19:28:16.453Z,91.50
2023-01-17T19:30:47.304Z,91.50
2023-01-17T19:33:19.588Z,91.60
2023-01-17T19:35:50.404Z,91.50
2023-01-17T19:38:30.007Z,91.50
2023-01-17T19:41:01.601Z,91.60
2023-01-17T19:43:32.272Z,91.50
2023-01-17T19:46:03.469Z,91.40
2023-01-17T19:48:34.249Z,91.40
2023-01-17T19:51:14.669Z,91.30
2023-01-17T19:53:45.478Z,91.20
2023-01-17T19:56:19.337Z,91.20
2023-01-17T19:58:50.583Z,91.10
2023-01-17T20:01:25.492Z,91.00
2023-01-17T20:03:57.960Z,91.00
2023-01-17T20:06:32.519Z,90.90
2023-01-17T20:09:03.662Z,90.90
2023-01-17T20:11:35.309Z,90.90
2023-01-17T20:14:07.834Z,90.90
2023-01-17T20:16:40.357Z,90.90
2023-01-17T20:19:11.096Z,90.90
2023-01-17T20:21:44.844Z,90.80
2023-01-17T20:24:26.085Z,90.90
2023-01-17T20:26:57.261Z,90.90
2023-01-17T20:29:28.337Z,90.80
2023-01-17T20:32:02.812Z,90.80
2023-01-17T20:34:33.795Z,90.60
2023-01-17T20:37:04.404Z,90.40
2023-01-17T20:39:35.058Z,90.30
2023-01-17T20:42:06.255Z,90.40
2023-01-17T20:44:38.145Z,90.40
2023-01-17T20:47:09.762Z,90.20
2023-01-17T20:49:40.528Z,90.10
2023-01-17T20:52:12.582Z,90.10
2023-01-17T20:54:46.245Z,90.10
2023-01-17T20:57:17.121Z,90.10
2023-01-17T20:59:47.863Z,90.00
2023-01-17T21:02:18.686Z,90.00
2023-01-17T21:04:49.388Z,89.60
2023-01-17T21:07:20.556Z,89.70
2023-01-17T21:09:51.360Z,89.70
2023-01-17T21:12:23.681Z,89.80
2023-01-17T21:14:55.777Z,89.50
2023-01-17T21:17:26.159Z,89.40
2023-01-17T21:19:56.874Z,89.70
2023-01-17T21:22:28.058Z,89.70
2023-01-17T21:24:58.747Z,89.70
2023-01-17T21:27:29.412Z,89.70
2023-01-17T21:30:00.272Z,89.80
2023-01-17T21:32:33.508Z,89.80
2023-01-17T21:35:07.570Z,90.00
2023-01-17T21:37:38.785Z,89.80
2023-01-17T21:40:09.809Z,89.40
2023-01-17T21:42:40.720Z,89.40
2023-01-17T21:45:12.728Z,89.60
2023-01-17T21:47:46.658Z,89.50
2023-01-17T21:50:32.399Z,89.00
2023-01-17T21:53:03.892Z,88.90
2023-01-17T21:55:52.267Z,88.70
2023-01-17T21:58:40.686Z,88.70
2023-01-17T22:01:23.454Z,89.00
2023-01-17T22:03:59.761Z,89.00
2023-01-17T22:06:33.873Z,89.00
2023-01-17T22:09:08.190Z,89.00
2023-01-17T22:11:40.035Z,89.20
2023-01-17T22:14:10.723Z,89.20
2023-01-17T22:16:41.737Z,88.90
2023-01-17T22:19:12.403Z,88.80
2023-01-17T22:21:46.646Z,88.80
2023-01-17T22:24:18.807Z,88.40
2023-01-17T22:26:51.496Z,89.30
2023-01-17T22:29:23.764Z,90.00
2023-01-17T22:31:54.469Z,90.00
2023-01-17T22:34:25.261Z,90.40
2023-01-17T22:36:55.925Z,90.50
2023-01-17T22:39:26.638Z,90.70
2023-01-17T22:41:58.285Z,90.90
2023-01-17T22:44:29.287Z,90.80
2023-01-17T22:46:59.876Z,91.00
2023-01-17T22:49:30.635Z,90.90
2023-01-17T22:52:01.601Z,90.80
2023-01-17T22:54:32.572Z,90.90
2023-01-17T22:57:03.237Z,90.90
2023-01-17T22:59:36.155Z,90.20
2023-01-17T23:02:06.371Z,89.90
2023-01-17T23:04:37.118Z,90.30
2023-01-17T23:07:08.853Z,89.70
2023-01-17T23:09:40.219Z,87.10
2023-01-17T23:12:10.974Z,84.90
2023-01-17T23:14:59.660Z,81.80
2023-01-17T23:17:47.592Z,79.90
2023-01-17T23:20:19.029Z,79.60
2023-01-17T23:22:50.199Z,76.90
2023-01-17T23:25:21.113Z,77.30
2023-01-17T23:28:09.737Z,74.10
2023-01-17T23:30:42.345Z,73.40
2023-01-17T23:33:16.289Z,73.80
2023-01-17T23:35:51.107Z,74.20
2023-01-17T23:38:32.997Z,73.80
2023-01-17T23:41:26.662Z,73.70
2023-01-17T23:44:00.148Z,73.80
2023-01-17T23:46:32.216Z,75.00
2023-01-17T23:49:02.882Z,73.80
2023-01-17T23:51:33.659Z,73.80
2023-01-17T23:54:07.354Z,73.70
2023-01-17T23:56:41.907Z,72.10
2023-01-17T23:59:12.716Z,71.90
